Time;durP1;ratioP1;P1;durP2;ratioP2;P2;SDS_P1;SDS_P2;PMS_P1;PMS_P2;Temp;Humidity;BMP_temperature;BMP_pressure;BME280_temperature;BME280_humidity;BME280_pressure;Samples;Min_cycle;Max_cycle;Signal;HPM_P1;HPM_P2
2023/11/02 00:01:55;;;;;;;6.50;1.00;;;12.90;99.90;;;;;;5049746;28;20811;-75
2023/11/02 00:04:41;;;;;;;1.87;0.90;;;12.80;99.90;;;;;;5052268;28;20461;-75
2023/11/02 00:07:30;;;;;;;1.93;0.80;;;12.80;99.90;;;;;;5045931;28;20459;-74
2023/11/02 00:10:16;;;;;;;7.97;1.33;;;12.80;99.90;;;;;;5050903;28;20437;-76
2023/11/02 00:13:04;;;;;;;2.80;0.80;;;12.70;99.90;;;;;;5048319;28;20430;-75
2023/11/02 00:15:50;;;;;;;2.10;0.87;;;12.60;99.90;;;;;;5044687;28;20489;-75
2023/11/02 00:18:36;;;;;;;3.60;1.10;;;12.40;99.90;;;;;;5049815;28;20999;-75
2023/11/02 00:21:28;;;;;;;2.30;1.00;;;12.30;99.90;;;;;;5048486;28;20447;-75
2023/11/02 00:24:15;;;;;;;6.70;1.10;;;12.20;99.90;;;;;;5046936;28;20474;-75
2023/11/02 00:27:00;;;;;;;4.87;1.43;;;12.10;99.90;;;;;;5053873;28;20471;-75
2023/11/02 00:29:48;;;;;;;5.73;1.00;;;12.00;99.90;;;;;;5056411;28;21001;-75
2023/11/02 00:32:33;;;;;;;2.37;1.27;;;11.80;99.90;;;;;;5050666;28;20535;-75
2023/11/02 00:35:19;;;;;;;2.20;1.03;;;11.70;99.90;;;;;;5050588;28;20498;-74
2023/11/02 00:38:05;;;;;;;5.00;1.20;;;11.50;99.90;;;;;;5048802;28;20458;-75
2023/11/02 00:40:51;;;;;;;2.60;0.90;;;11.40;99.90;;;;;;5051756;28;20473;-75
2023/11/02 00:43:37;;;;;;;7.40;1.50;;;11.30;99.90;;;;;;5052079;28;20453;-75
2023/11/02 00:46:23;;;;;;;5.67;1.30;;;11.20;99.90;;;;;;5058847;28;20443;-74
2023/11/02 00:49:19;;;;;;;5.63;1.87;;;11.10;99.90;;;;;;5055354;28;20420;-74
2023/11/02 00:52:06;;;;;;;2.83;1.33;;;10.90;99.90;;;;;;5060224;28;20537;-74
2023/11/02 00:54:58;;;;;;;4.50;1.50;;;10.70;99.90;;;;;;5055361;28;20575;-74
2023/11/02 00:57:44;;;;;;;2.00;1.03;;;10.60;99.90;;;;;;5055556;28;20461;-74
2023/11/02 01:00:55;;;;;;;10.50;1.10;;;10.60;99.90;;;;;;5051124;28;20495;-74
2023/11/02 01:03:47;;;;;;;2.50;1.00;;;10.70;99.90;;;;;;5058777;28;20544;-75
2023/11/02 01:06:34;;;;;;;2.90;0.90;;;10.70;99.90;;;;;;5058143;28;20503;-75
2023/11/02 01:09:45;;;;;;;5.00;1.00;;;10.60;99.90;;;;;;5050257;28;20463;-74
2023/11/02 01:12:35;;;;;;;3.80;1.43;;;10.50;99.90;;;;;;5047105;28;20512;-74
2023/11/02 01:16:00;;;;;;;6.33;1.30;;;10.50;99.90;;;;;;5047516;28;20856;-74
2023/11/02 01:18:47;;;;;;;4.60;1.40;;;10.50;99.90;;;;;;5048893;28;20481;-74
2023/11/02 01:21:33;;;;;;;15.43;4.33;;;10.60;99.90;;;;;;5050982;28;20500;-75
2023/11/02 01:24:23;;;;;;;7.87;1.80;;;10.60;99.90;;;;;;5046371;28;20780;-75
2023/11/02 01:27:16;;;;;;;2.17;1.13;;;10.60;99.90;;;;;;5053517;28;20465;-75
2023/11/02 01:30:09;;;;;;;3.83;0.93;;;10.50;99.90;;;;;;5055033;28;20908;-74
2023/11/02 01:32:55;;;;;;;2.70;1.00;;;10.50;99.90;;;;;;5054630;28;20444;-75
2023/11/02 01:35:44;;;;;;;3.50;1.13;;;10.40;99.90;;;;;;5048104;28;20837;-75
2023/11/02 01:38:30;;;;;;;5.63;1.47;;;10.40;99.90;;;;;;5048722;28;20429;-74
2023/11/02 01:41:18;;;;;;;3.30;1.10;;;10.40;99.90;;;;;;5051382;28;20428;-75
2023/11/02 01:44:10;;;;;;;6.53;2.10;;;10.40;99.90;;;;;;5051935;28;20512;-75
2023/11/02 01:47:07;;;;;;;3.00;1.10;;;10.40;99.90;;;;;;5052365;28;20996;-75
2023/11/02 01:50:01;;;;;;;2.50;0.93;;;10.40;99.90;;;;;;5049864;28;20518;-74
2023/11/02 01:53:06;;;;;;;4.27;1.10;;;10.30;99.90;;;;;;5045104;28;20475;-74
2023/11/02 01:56:14;;;;;;;5.77;1.23;;;10.40;99.90;;;;;;5046386;28;20498;-75
2023/11/02 01:59:09;;;;;;;9.63;1.10;;;10.50;99.90;;;;;;5049634;28;20449;-74
2023/11/02 02:02:03;;;;;;;3.97;1.13;;;10.30;99.90;;;;;;5051319;28;20532;-75
2023/11/02 02:04:56;;;;;;;3.90;1.27;;;10.30;99.90;;;;;;5045105;28;21011;-75
2023/11/02 02:07:50;;;;;;;3.40;1.27;;;10.40;99.90;;;;;;5053573;28;20528;-74
2023/11/02 02:10:49;;;;;;;4.90;1.20;;;10.40;99.90;;;;;;5049794;28;20852;-75
2023/11/02 02:13:47;;;;;;;3.03;1.37;;;10.50;99.90;;;;;;5044634;28;20476;-74
2023/11/02 02:16:39;;;;;;;1.80;1.00;;;10.40;99.90;;;;;;5048342;28;20504;-75
2023/11/02 02:19:51;;;;;;;5.40;1.40;;;10.60;99.90;;;;;;5050200;28;20462;-75
2023/11/02 02:22:44;;;;;;;3.00;1.20;;;10.50;99.90;;;;;;5052380;28;20478;-74
2023/11/02 02:25:37;;;;;;;5.37;1.53;;;10.40;99.90;;;;;;5058726;28;20817;-75
2023/11/02 02:28:57;;;;;;;2.30;1.00;;;10.50;99.90;;;;;;5045167;28;20866;-75
2023/11/02 02:31:59;;;;;;;3.83;1.10;;;10.40;99.90;;;;;;5050233;28;21025;-74
2023/11/02 02:35:01;;;;;;;6.43;1.47;;;10.60;99.90;;;;;;5045347;28;20959;-74
2023/11/02 02:37:53;;;;;;;2.73;1.30;;;10.90;99.90;;;;;;5052230;28;20431;-75
2023/11/02 02:40:44;;;;;;;3.20;1.37;;;11.00;99.90;;;;;;5050159;28;20539;-75
2023/11/02 02:43:31;;;;;;;1.70;0.90;;;11.20;99.90;;;;;;5043212;28;20527;-74
2023/11/02 02:46:21;;;;;;;2.83;1.00;;;11.30;99.90;;;;;;5064892;28;20972;-75
2023/11/02 02:49:07;;;;;;;8.83;1.17;;;11.40;99.90;;;;;;5054628;28;20457;-74
2023/11/02 02:51:57;;;;;;;2.47;0.80;;;11.50;99.90;;;;;;5043902;28;20462;-74
2023/11/02 02:54:50;;;;;;;2.87;1.00;;;11.60;99.90;;;;;;5049615;28;20821;-74
2023/11/02 02:57:39;;;;;;;2.00;1.20;;;11.70;99.90;;;;;;5048837;28;20445;-74
2023/11/02 03:00:27;;;;;;;4.57;1.20;;;11.70;99.90;;;;;;5050662;28;20461;-74
2023/11/02 03:03:20;;;;;;;1.80;1.00;;;11.70;99.90;;;;;;5048531;28;21052;-74
2023/11/02 03:06:08;;;;;;;3.17;0.90;;;11.80;99.90;;;;;;5041740;28;20838;-74
2023/11/02 03:08:57;;;;;;;5.10;1.30;;;11.90;99.90;;;;;;5043820;28;20470;-75
2023/11/02 03:11:44;;;;;;;1.77;0.93;;;11.90;99.90;;;;;;5058833;28;20476;-75
2023/11/02 03:14:32;;;;;;;3.87;1.00;;;11.80;99.90;;;;;;5045462;28;20455;-74
2023/11/02 03:17:23;;;;;;;2.00;1.00;;;11.90;99.90;;;;;;5053120;28;20600;-74
2023/11/02 03:20:10;;;;;;;2.13;0.90;;;11.90;99.90;;;;;;5058407;28;20892;-74
2023/11/02 03:23:00;;;;;;;2.23;0.87;;;11.90;99.90;;;;;;5049020;28;20474;-75
2023/11/02 03:25:55;;;;;;;2.40;1.00;;;11.90;99.90;;;;;;5048544;28;21032;-74
2023/11/02 03:28:47;;;;;;;3.30;1.40;;;11.90;99.90;;;;;;5045550;28;20480;-74
2023/11/02 03:31:45;;;;;;;3.40;1.27;;;11.90;99.90;;;;;;5041529;28;21142;-75
2023/11/02 03:34:39;;;;;;;3.63;1.00;;;12.00;99.90;;;;;;5050856;28;20449;-74
2023/11/02 03:37:32;;;;;;;2.17;1.00;;;11.90;99.90;;;;;;5048818;28;20487;-74
2023/11/02 03:40:27;;;;;;;3.70;0.90;;;11.90;99.90;;;;;;5049915;28;20431;-75
2023/11/02 03:43:19;;;;;;;1.90;0.80;;;11.90;99.90;;;;;;5048864;28;20478;-74
2023/11/02 03:46:19;;;;;;;3.73;0.80;;;12.00;99.90;;;;;;5044249;28;20605;-74
2023/11/02 03:49:17;;;;;;;5.13;0.93;;;12.00;99.90;;;;;;5041468;28;20425;-74
2023/11/02 03:52:14;;;;;;;7.20;1.03;;;12.00;99.90;;;;;;5042771;28;20535;-75
2023/11/02 03:55:11;;;;;;;2.90;1.00;;;12.10;99.90;;;;;;5046168;28;20568;-75
2023/11/02 03:58:03;;;;;;;3.30;1.10;;;12.10;99.90;;;;;;5049905;28;20536;-75
2023/11/02 04:00:55;;;;;;;5.90;0.90;;;12.10;99.90;;;;;;5047839;28;20452;-75
2023/11/02 04:03:45;;;;;;;3.13;0.90;;;12.10;99.90;;;;;;5045522;28;20486;-75
2023/11/02 04:06:42;;;;;;;4.20;0.90;;;12.10;99.90;;;;;;5053237;28;20413;-74
2023/11/02 04:09:35;;;;;;;2.73;0.70;;;12.20;99.90;;;;;;5051532;28;20810;-74
2023/11/02 04:12:31;;;;;;;1.77;0.80;;;12.20;99.90;;;;;;5053246;28;20545;-75
2023/11/02 04:15:17;;;;;;;2.37;0.97;;;12.30;99.90;;;;;;5055835;28;20422;-74
2023/11/02 04:18:04;;;;;;;2.60;1.07;;;12.30;99.90;;;;;;5047835;28;20975;-74
2023/11/02 04:20:51;;;;;;;2.40;0.97;;;12.30;99.90;;;;;;5047775;28;20921;-75
2023/11/02 04:23:37;;;;;;;2.37;0.90;;;12.30;99.90;;;;;;5052644;28;20791;-75
2023/11/02 04:26:22;;;;;;;8.10;1.17;;;12.30;99.90;;;;;;5049612;28;20451;-75
2023/11/02 04:29:08;;;;;;;3.87;0.93;;;12.30;99.90;;;;;;5059884;28;20415;-74
2023/11/02 04:31:54;;;;;;;2.70;1.17;;;12.30;99.90;;;;;;5057285;28;20453;-74
2023/11/02 04:34:41;;;;;;;2.63;1.27;;;12.30;99.90;;;;;;5055027;28;20443;-74
2023/11/02 04:37:27;;;;;;;2.60;0.93;;;12.30;99.90;;;;;;5050507;28;20449;-74
2023/11/02 04:40:12;;;;;;;5.27;1.20;;;12.30;99.90;;;;;;5049982;28;20425;-74
2023/11/02 04:42:58;;;;;;;1.93;1.03;;;12.30;99.90;;;;;;5052841;28;20470;-74
2023/11/02 04:45:43;;;;;;;2.63;0.90;;;12.30;99.90;;;;;;5045931;28;20449;-74
2023/11/02 04:48:29;;;;;;;1.97;1.10;;;12.20;99.90;;;;;;5053968;28;20421;-74
2023/11/02 04:51:16;;;;;;;3.37;1.40;;;12.10;99.90;;;;;;5046430;28;20459;-74
2023/11/02 04:54:01;;;;;;;2.60;1.00;;;12.10;99.90;;;;;;5048926;28;20429;-74
2023/11/02 04:56:47;;;;;;;3.13;1.10;;;12.00;99.90;;;;;;5052253;28;20440;-75
2023/11/02 04:59:36;;;;;;;2.17;0.80;;;12.00;99.90;;;;;;5048664;28;20432;-74
2023/11/02 05:02:22;;;;;;;5.57;1.10;;;12.00;99.90;;;;;;5051438;28;20595;-74
2023/11/02 05:05:08;;;;;;;3.10;1.00;;;12.00;99.90;;;;;;5056920;28;20493;-74
2023/11/02 05:07:56;;;;;;;3.53;1.07;;;12.00;99.90;;;;;;5045603;28;20455;-74
2023/11/02 05:10:41;;;;;;;4.00;1.13;;;12.00;99.90;;;;;;5049633;28;20447;-74
2023/11/02 05:13:27;;;;;;;2.83;1.00;;;12.00;99.90;;;;;;5055437;28;20454;-74
2023/11/02 05:16:13;;;;;;;3.73;0.80;;;12.00;99.90;;;;;;5052355;28;20446;-74
2023/11/02 05:18:58;;;;;;;1.80;0.83;;;12.00;99.90;;;;;;5050883;28;20429;-74
2023/11/02 05:21:44;;;;;;;2.47;1.03;;;11.90;99.90;;;;;;5046332;28;20437;-74
2023/11/02 05:24:31;;;;;;;3.10;1.10;;;11.90;99.90;;;;;;5049333;28;20501;-74
2023/11/02 05:27:17;;;;;;;2.57;1.10;;;11.90;99.90;;;;;;5047837;28;20532;-74
2023/11/02 05:30:03;;;;;;;1.50;0.83;;;11.80;99.90;;;;;;5053402;28;20455;-74
2023/11/02 05:32:48;;;;;;;2.17;1.20;;;11.80;99.90;;;;;;5059395;22;20466;-71
2023/11/02 05:35:34;;;;;;;2.57;1.23;;;11.80;99.90;;;;;;5014873;28;20449;-71
2023/11/02 05:38:20;;;;;;;2.40;1.10;;;11.80;99.90;;;;;;5016197;28;20495;-71
2023/11/02 05:41:07;;;;;;;2.87;1.20;;;11.70;99.90;;;;;;5008659;28;20959;-71
2023/11/02 05:43:53;;;;;;;1.93;1.00;;;11.70;99.90;;;;;;5014731;28;21017;-70
2023/11/02 05:46:38;;;;;;;1.60;0.90;;;11.70;99.90;;;;;;5014641;28;20477;-71
2023/11/02 05:49:24;;;;;;;2.37;0.90;;;11.60;99.90;;;;;;5011860;28;21079;-71
2023/11/02 05:52:10;;;;;;;2.23;1.10;;;11.60;99.90;;;;;;5010342;28;20453;-72
2023/11/02 05:54:56;;;;;;;2.27;1.40;;;11.60;99.90;;;;;;5009010;28;20497;-71
2023/11/02 05:57:43;;;;;;;2.57;0.87;;;11.60;99.90;;;;;;5008468;28;20468;-71
2023/11/02 06:00:28;;;;;;;2.33;1.03;;;11.60;99.90;;;;;;5015790;28;21006;-71
2023/11/02 06:03:14;;;;;;;2.43;1.17;;;11.60;99.90;;;;;;5010243;28;20447;-72
2023/11/02 06:06:00;;;;;;;2.10;1.00;;;11.60;99.90;;;;;;5012418;28;20475;-71
2023/11/02 06:08:45;;;;;;;2.80;1.23;;;11.50;99.90;;;;;;5006176;28;20447;-70
2023/11/02 06:11:31;;;;;;;2.13;1.00;;;11.50;99.90;;;;;;5014140;28;20531;-71
2023/11/02 06:14:18;;;;;;;5.73;1.20;;;11.60;99.90;;;;;;5012204;28;20468;-70
2023/11/02 06:17:04;;;;;;;3.07;1.30;;;11.60;99.90;;;;;;5010472;28;20446;-70
2023/11/02 06:19:50;;;;;;;2.30;0.80;;;11.60;99.90;;;;;;5009470;28;21074;-71
2023/11/02 06:22:35;;;;;;;3.20;1.10;;;11.60;99.90;;;;;;5011814;28;20430;-72
2023/11/02 06:25:21;;;;;;;2.90;1.00;;;11.60;99.90;;;;;;5022584;28;20483;-71
2023/11/02 06:28:07;;;;;;;2.70;1.00;;;11.50;99.90;;;;;;5017334;28;20472;-70
2023/11/02 06:30:54;;;;;;;2.43;1.17;;;11.50;99.90;;;;;;5010040;28;20459;-71
2023/11/02 06:33:39;;;;;;;2.90;1.00;;;11.50;99.90;;;;;;5006722;28;21005;-71
2023/11/02 06:36:25;;;;;;;3.30;1.40;;;11.50;99.90;;;;;;5013738;28;20439;-71
2023/11/02 06:39:11;;;;;;;1.80;1.00;;;11.50;99.90;;;;;;5006621;28;20424;-71
2023/11/02 06:41:57;;;;;;;2.30;1.00;;;11.50;99.90;;;;;;5011958;28;20940;-71
2023/11/02 06:44:44;;;;;;;1.40;0.77;;;11.50;99.90;;;;;;5013880;28;20482;-71
2023/11/02 06:47:31;;;;;;;2.53;1.20;;;11.50;99.90;;;;;;5016441;28;20447;-72
2023/11/02 06:50:17;;;;;;;1.67;0.80;;;11.50;99.90;;;;;;5008953;28;20444;-71
2023/11/02 06:53:02;;;;;;;3.03;0.97;;;11.50;99.90;;;;;;5006829;28;20463;-72
2023/11/02 06:55:48;;;;;;;5.70;1.80;;;11.50;99.90;;;;;;5008525;28;21359;-71
2023/11/02 06:58:34;;;;;;;3.03;1.37;;;11.40;99.90;;;;;;5011334;28;20438;-71
2023/11/02 07:01:20;;;;;;;2.23;1.00;;;11.40;99.90;;;;;;5006424;28;20460;-71
2023/11/02 07:04:07;;;;;;;1.50;0.80;;;11.40;99.90;;;;;;5007045;28;20468;-71
2023/11/02 07:06:53;;;;;;;1.53;0.90;;;11.40;99.90;;;;;;5003216;28;20853;-71
2023/11/02 07:09:39;;;;;;;1.30;0.70;;;11.30;99.90;;;;;;5011387;28;20451;-71
2023/11/02 07:12:25;;;;;;;2.17;1.00;;;11.30;99.90;;;;;;5008956;28;20435;-71
2023/11/02 07:15:11;;;;;;;3.30;1.10;;;11.30;99.90;;;;;;5013257;28;20983;-70
2023/11/02 07:17:57;;;;;;;6.03;1.20;;;11.30;99.90;;;;;;5019015;28;20481;-71
2023/11/02 07:20:44;;;;;;;5.20;1.10;;;11.30;99.90;;;;;;5011083;28;20426;-71
2023/11/02 07:23:30;;;;;;;2.10;0.93;;;11.40;99.90;;;;;;5011457;28;20467;-71
2023/11/02 07:26:15;;;;;;;4.13;1.17;;;11.30;99.90;;;;;;5003985;28;20484;-71
2023/11/02 07:29:01;;;;;;;1.90;1.00;;;11.30;99.90;;;;;;5005879;28;20970;-71
2023/11/02 07:31:47;;;;;;;2.33;1.10;;;11.30;99.90;;;;;;5011640;28;20447;-69
2023/11/02 07:34:34;;;;;;;3.33;1.00;;;11.30;99.90;;;;;;5011898;28;20542;-71
2023/11/02 07:37:21;;;;;;;2.00;1.10;;;11.30;99.90;;;;;;5009143;28;20456;-71
2023/11/02 07:40:07;;;;;;;1.80;0.97;;;11.30;99.90;;;;;;5017340;28;20524;-71
2023/11/02 07:42:53;;;;;;;5.73;1.07;;;11.30;99.90;;;;;;5011844;28;20558;-71
2023/11/02 07:45:39;;;;;;;1.90;0.93;;;11.40;99.90;;;;;;5012725;28;20488;-71
2023/11/02 07:48:25;;;;;;;2.00;0.80;;;11.30;99.90;;;;;;5019455;28;20467;-71
2023/11/02 07:51:13;;;;;;;3.07;1.03;;;11.30;99.90;;;;;;5018349;28;20447;-71
2023/11/02 07:54:01;;;;;;;2.53;1.37;;;11.30;99.90;;;;;;5012527;28;20644;-72
2023/11/02 07:56:47;;;;;;;2.53;1.13;;;11.30;99.90;;;;;;5018685;28;20497;-71
2023/11/02 07:59:33;;;;;;;2.60;1.27;;;11.20;99.90;;;;;;5015433;28;20471;-71
2023/11/02 08:02:20;;;;;;;6.23;1.30;;;11.20;99.90;;;;;;5018246;28;21492;-70
2023/11/02 08:05:06;;;;;;;2.43;0.90;;;11.20;99.90;;;;;;5007851;28;21006;-71
2023/11/02 08:07:52;;;;;;;2.40;1.20;;;11.20;99.90;;;;;;5011877;28;20426;-71
2023/11/02 08:10:40;;;;;;;2.50;1.10;;;11.20;99.90;;;;;;5016690;28;20887;-71
2023/11/02 08:13:26;;;;;;;2.40;1.40;;;11.30;99.90;;;;;;5012904;28;20479;-71
2023/11/02 08:16:11;;;;;;;1.80;0.97;;;11.40;99.90;;;;;;5019393;28;21064;-70
2023/11/02 08:18:57;;;;;;;2.87;1.30;;;11.40;99.90;;;;;;5019146;28;20812;-71
2023/11/02 08:21:43;;;;;;;3.20;1.30;;;11.40;99.90;;;;;;5010517;28;20513;-70
2023/11/02 08:24:28;;;;;;;1.97;0.90;;;11.50;99.90;;;;;;5015474;28;20571;-71
2023/11/02 08:27:15;;;;;;;3.20;1.07;;;11.40;99.90;;;;;;5012489;28;20460;-70
2023/11/02 08:30:01;;;;;;;2.30;1.33;;;11.40;99.90;;;;;;5012600;28;20809;-70
2023/11/02 08:32:47;;;;;;;2.53;0.93;;;11.40;99.90;;;;;;5009264;28;20480;-72
2023/11/02 08:35:32;;;;;;;2.00;1.00;;;11.50;99.90;;;;;;5008151;28;20456;-71
2023/11/02 08:38:18;;;;;;;2.63;1.30;;;11.60;99.90;;;;;;5011743;28;20815;-70
2023/11/02 08:41:04;;;;;;;1.93;1.10;;;11.60;99.90;;;;;;5011274;28;20448;-71
2023/11/02 08:43:52;;;;;;;4.47;1.00;;;11.60;99.90;;;;;;5012946;28;20999;-71
2023/11/02 08:46:37;;;;;;;1.63;0.83;;;11.70;99.90;;;;;;5016881;28;20456;-70
2023/11/02 08:49:23;;;;;;;2.20;1.23;;;11.80;99.90;;;;;;5009919;28;20804;-72
2023/11/02 08:52:08;;;;;;;2.00;1.13;;;11.80;99.90;;;;;;5009361;28;20870;-72
2023/11/02 08:54:54;;;;;;;3.53;1.13;;;11.90;99.90;;;;;;5013845;28;20521;-71
2023/11/02 08:57:41;;;;;;;2.10;1.13;;;12.00;99.90;;;;;;5010846;28;20479;-72
2023/11/02 09:00:28;;;;;;;1.50;0.90;;;12.00;99.90;;;;;;5011947;28;20448;-72
2023/11/02 09:03:13;;;;;;;2.63;1.17;;;12.00;99.90;;;;;;5012117;28;20471;-70
2023/11/02 09:05:59;;;;;;;1.90;1.00;;;12.00;99.90;;;;;;5006620;28;20500;-72
2023/11/02 09:08:45;;;;;;;2.70;1.10;;;12.10;99.90;;;;;;5010026;28;20982;-72
2023/11/02 09:11:30;;;;;;;2.83;1.17;;;12.10;99.90;;;;;;5015561;28;20464;-72
2023/11/02 09:14:16;;;;;;;2.10;0.90;;;12.00;99.90;;;;;;5012896;28;20464;-71
2023/11/02 09:17:04;;;;;;;2.03;1.03;;;12.00;99.90;;;;;;5005155;28;20488;-70
2023/11/02 09:19:50;;;;;;;5.73;0.80;;;12.00;99.90;;;;;;5008804;28;20444;-70
2023/11/02 09:22:36;;;;;;;3.87;1.20;;;12.00;99.90;;;;;;5017714;28;20446;-71
2023/11/02 09:25:21;;;;;;;6.80;0.97;;;12.00;99.90;;;;;;5011272;28;20485;-71
2023/11/02 09:28:09;;;;;;;3.00;1.13;;;12.10;99.90;;;;;;5010089;28;20443;-71
2023/11/02 09:30:55;;;;;;;1.97;1.10;;;12.10;99.90;;;;;;5009694;28;20453;-71
2023/11/02 09:33:41;;;;;;;2.80;1.27;;;12.10;99.90;;;;;;5006948;28;21024;-71
2023/11/02 09:36:27;;;;;;;2.60;0.90;;;12.10;99.90;;;;;;5011907;28;20487;-71
2023/11/02 09:39:17;;;;;;;2.63;1.10;;;12.10;99.90;;;;;;5013447;28;20455;-71
2023/11/02 09:42:04;;;;;;;2.23;0.90;;;12.00;99.90;;;;;;5013964;28;20445;-72
2023/11/02 09:44:49;;;;;;;3.53;0.83;;;12.00;99.90;;;;;;5017463;28;21084;-72
2023/11/02 09:47:35;;;;;;;3.53;1.10;;;12.00;99.90;;;;;;5008589;28;20461;-72
2023/11/02 09:50:22;;;;;;;1.97;0.90;;;12.10;99.90;;;;;;5010052;28;20444;-70
2023/11/02 09:53:08;;;;;;;2.83;1.03;;;12.20;99.90;;;;;;5010657;28;21081;-71
2023/11/02 09:55:54;;;;;;;1.60;0.73;;;12.30;99.90;;;;;;5015209;28;20440;-72
2023/11/02 09:58:41;;;;;;;2.37;0.80;;;12.30;99.90;;;;;;5011181;28;20477;-71
2023/11/02 10:01:28;;;;;;;1.70;1.00;;;12.30;99.90;;;;;;5011234;28;20849;-70
2023/11/02 10:04:14;;;;;;;2.47;1.23;;;12.30;99.90;;;;;;5011805;28;20474;-71
2023/11/02 10:07:00;;;;;;;1.60;0.80;;;12.40;99.90;;;;;;5011098;28;20476;-71
2023/11/02 10:09:46;;;;;;;2.53;1.17;;;12.30;99.90;;;;;;5009396;28;20483;-71
2023/11/02 10:12:35;;;;;;;4.80;0.70;;;12.30;99.90;;;;;;5014548;28;20464;-71
2023/11/02 10:15:21;;;;;;;2.13;0.93;;;12.30;99.90;;;;;;5011473;28;20457;-72
2023/11/02 10:18:14;;;;;;;2.27;0.87;;;12.30;99.90;;;;;;5008588;28;20468;-71
2023/11/02 10:21:04;;;;;;;2.43;0.80;;;12.20;99.90;;;;;;5006206;28;20595;-71
2023/11/02 10:23:53;;;;;;;3.97;1.00;;;12.30;99.90;;;;;;5009604;28;20543;-71
2023/11/02 10:26:40;;;;;;;2.63;1.00;;;12.40;99.90;;;;;;5010007;28;20879;-72
2023/11/02 10:29:26;;;;;;;8.70;1.33;;;12.40;99.90;;;;;;5010291;28;20452;-72
2023/11/02 10:32:12;;;;;;;1.50;0.73;;;12.40;99.90;;;;;;5006769;28;20444;-71
2023/11/02 10:34:58;;;;;;;2.00;0.80;;;12.40;99.90;;;;;;5013551;28;20448;-72
2023/11/02 10:37:44;;;;;;;4.20;1.10;;;12.50;99.90;;;;;;5012396;28;20599;-70
2023/11/02 10:40:45;;;;;;;2.10;0.93;;;12.60;99.90;;;;;;5009753;28;21033;-71
2023/11/02 10:43:37;;;;;;;7.50;1.00;;;12.70;99.90;;;;;;5009171;28;20634;-71
2023/11/02 10:46:23;;;;;;;3.03;1.10;;;12.70;99.90;;;;;;5009592;28;20845;-70
2023/11/02 10:49:11;;;;;;;2.13;0.90;;;12.70;99.90;;;;;;5009166;28;20978;-71
2023/11/02 10:51:58;;;;;;;2.37;1.03;;;12.70;99.90;;;;;;5016634;28;20963;-70
2023/11/02 10:54:53;;;;;;;2.00;0.80;;;12.70;99.90;;;;;;5014575;28;20480;-71
2023/11/02 10:57:42;;;;;;;2.67;1.20;;;12.70;99.90;;;;;;5019278;28;20871;-71
2023/11/02 11:00:28;;;;;;;2.37;1.10;;;12.70;99.90;;;;;;5017353;28;20546;-71
2023/11/02 11:03:14;;;;;;;1.93;0.83;;;12.70;99.90;;;;;;5006918;28;21082;-72
2023/11/02 11:06:01;;;;;;;1.90;0.70;;;12.70;99.90;;;;;;5006933;28;20678;-72
2023/11/02 11:08:48;;;;;;;3.10;1.20;;;12.70;99.90;;;;;;5006843;28;20792;-72
2023/11/02 11:11:34;;;;;;;3.10;0.90;;;12.80;99.90;;;;;;5007941;28;20820;-72
2023/11/02 11:14:22;;;;;;;1.87;0.87;;;12.80;99.90;;;;;;5009878;28;20493;-70
2023/11/02 11:17:08;;;;;;;2.57;0.97;;;12.80;99.90;;;;;;5009116;28;20433;-71
2023/11/02 11:19:55;;;;;;;5.63;1.07;;;12.80;99.90;;;;;;5016328;28;20447;-71
2023/11/02 11:22:44;;;;;;;4.00;1.20;;;12.80;99.90;;;;;;5023031;28;20465;-72
2023/11/02 11:25:30;;;;;;;2.80;1.00;;;12.80;99.90;;;;;;5029941;28;20559;-71
2023/11/02 11:28:31;;;;;;;3.43;1.07;;;12.80;99.90;;;;;;5030808;28;20431;-72
2023/11/02 11:31:49;;;;;;;2.20;1.10;;;12.80;99.90;;;;;;5030593;28;20803;-72
2023/11/02 11:35:09;;;;;;;3.73;0.90;;;12.80;99.90;;;;;;5070213;22;20712;-75
2023/11/02 11:37:57;;;;;;;1.80;0.83;;;12.80;99.90;;;;;;5057246;28;20422;-74
2023/11/02 11:40:44;;;;;;;2.37;1.03;;;12.80;99.90;;;;;;5061619;28;20406;-75
2023/11/02 11:44:03;;;;;;;1.97;1.07;;;12.80;99.90;;;;;;5066305;28;20442;-75
2023/11/02 11:46:51;;;;;;;1.50;0.90;;;12.80;99.90;;;;;;5062660;28;20509;-75
2023/11/02 11:49:55;;;;;;;5.23;1.00;;;12.90;99.90;;;;;;5070259;28;21099;-75
2023/11/02 11:52:43;;;;;;;3.00;0.90;;;12.90;99.90;;;;;;5068753;28;20486;-75
2023/11/02 11:55:36;;;;;;;3.40;0.83;;;12.90;99.90;;;;;;5070212;28;20401;-75
2023/11/02 11:58:48;;;;;;;2.23;1.03;;;12.90;99.90;;;;;;5060680;28;20439;-75
2023/11/02 12:01:33;;;;;;;4.73;1.00;;;12.90;99.90;;;;;;5070080;28;20442;-75
2023/11/02 12:04:46;;;;;;;3.73;1.00;;;13.00;99.90;;;;;;5069932;28;20428;-75
2023/11/02 12:07:33;;;;;;;2.80;0.90;;;13.00;99.90;;;;;;5070290;28;20516;-75
2023/11/02 12:10:22;;;;;;;1.70;0.90;;;13.10;99.90;;;;;;5064989;28;20848;-75
2023/11/02 12:13:08;;;;;;;2.07;0.73;;;13.10;99.90;;;;;;5070009;28;20442;-75
2023/11/02 12:15:57;;;;;;;3.47;1.00;;;13.10;99.90;;;;;;5052353;28;20496;-75
2023/11/02 12:18:46;;;;;;;4.30;1.00;;;13.20;99.90;;;;;;5069971;28;20927;-75
2023/11/02 12:21:31;;;;;;;4.70;0.90;;;13.20;99.90;;;;;;5069764;28;20937;-75
2023/11/02 12:24:17;;;;;;;3.43;0.77;;;13.20;99.90;;;;;;5073632;28;20565;-75
2023/11/02 12:27:13;;;;;;;4.50;1.00;;;13.20;99.90;;;;;;5062609;28;20465;-75
2023/11/02 12:29:59;;;;;;;4.37;0.90;;;13.20;99.90;;;;;;5069156;28;20477;-75
2023/11/02 12:32:44;;;;;;;3.83;1.10;;;13.20;99.90;;;;;;5046373;28;20429;-75
2023/11/02 12:35:30;;;;;;;3.30;1.20;;;13.20;99.90;;;;;;5058306;28;20554;-75
2023/11/02 12:38:33;;;;;;;4.10;1.10;;;13.30;99.90;;;;;;5052503;28;20413;-75
2023/11/02 12:41:26;;;;;;;1.80;0.80;;;13.30;99.90;;;;;;5050085;28;20589;-75
2023/11/02 12:44:16;;;;;;;2.20;1.20;;;13.30;99.90;;;;;;5053484;28;20459;-75
2023/11/02 12:47:06;;;;;;;4.43;1.20;;;13.30;99.90;;;;;;5061596;28;21079;-75
2023/11/02 12:49:52;;;;;;;2.73;1.17;;;13.30;99.90;;;;;;5068055;28;20501;-75
2023/11/02 12:52:41;;;;;;;2.50;1.10;;;13.30;99.90;;;;;;5060171;28;20513;-75
2023/11/02 12:55:28;;;;;;;4.87;1.00;;;13.30;99.90;;;;;;5058412;28;21193;-75
2023/11/02 12:58:15;;;;;;;1.80;0.83;;;13.30;99.90;;;;;;5059894;28;20446;-75
2023/11/02 13:01:02;;;;;;;12.80;1.13;;;13.20;99.90;;;;;;5065263;28;20640;-75
2023/11/02 13:03:58;;;;;;;3.67;1.20;;;13.30;99.90;;;;;;5058182;28;20471;-75
2023/11/02 13:06:44;;;;;;;1.70;0.90;;;13.20;99.90;;;;;;5055783;28;20624;-75
2023/11/02 13:09:31;;;;;;;3.63;1.43;;;13.30;99.90;;;;;;5059361;28;20529;-75
2023/11/02 13:12:17;;;;;;;2.67;0.90;;;13.20;99.90;;;;;;5064311;28;20588;-75
2023/11/02 13:15:05;;;;;;;2.90;1.10;;;13.30;99.90;;;;;;5051594;28;20965;-75
2023/11/02 13:17:52;;;;;;;6.00;1.50;;;13.20;99.90;;;;;;5052885;28;20802;-75
2023/11/02 13:20:37;;;;;;;2.00;0.87;;;13.30;99.90;;;;;;5055319;28;20524;-75
2023/11/02 13:23:23;;;;;;;3.93;1.10;;;13.30;99.90;;;;;;5059150;28;20458;-75
2023/11/02 13:26:09;;;;;;;2.70;0.90;;;13.30;99.90;;;;;;5061756;28;20810;-74
2023/11/02 13:28:55;;;;;;;6.37;1.40;;;13.20;99.90;;;;;;5053204;28;20545;-75
2023/11/02 13:31:41;;;;;;;3.50;1.07;;;13.20;99.90;;;;;;5059459;28;20577;-75
2023/11/02 13:34:28;;;;;;;4.13;1.23;;;13.20;99.90;;;;;;5056650;28;20507;-75
2023/11/02 13:37:13;;;;;;;1.67;0.90;;;13.20;99.90;;;;;;5063416;28;20462;-75
2023/11/02 13:39:59;;;;;;;4.37;1.10;;;13.20;99.90;;;;;;5058706;28;20434;-75
2023/11/02 13:42:47;;;;;;;3.60;1.00;;;13.20;99.90;;;;;;5053878;28;20496;-75
2023/11/02 13:45:32;;;;;;;4.03;1.03;;;13.30;99.90;;;;;;5059565;28;20538;-75
2023/11/02 13:48:18;;;;;;;3.70;1.20;;;13.30;99.90;;;;;;5057584;28;20474;-75
2023/11/02 13:51:05;;;;;;;4.63;1.00;;;13.20;99.90;;;;;;5054716;28;20493;-75
2023/11/02 13:53:51;;;;;;;2.47;1.07;;;13.20;99.90;;;;;;5055020;28;20485;-75
2023/11/02 13:56:36;;;;;;;2.70;0.80;;;13.20;99.90;;;;;;5056388;28;20445;-75
2023/11/02 13:59:22;;;;;;;2.77;1.00;;;13.10;99.90;;;;;;5056800;28;20517;-75
2023/11/02 14:02:08;;;;;;;3.37;1.10;;;13.10;99.90;;;;;;5051119;28;20433;-76
2023/11/02 14:04:54;;;;;;;4.23;1.00;;;13.20;99.90;;;;;;5053473;28;20497;-75
2023/11/02 14:07:41;;;;;;;3.20;1.13;;;13.20;99.90;;;;;;5059837;28;20516;-75
2023/11/02 14:10:28;;;;;;;1.67;0.73;;;13.10;99.90;;;;;;5058083;28;20487;-75
2023/11/02 14:13:13;;;;;;;4.93;1.20;;;13.10;99.90;;;;;;5066986;28;20478;-75
2023/11/02 14:15:59;;;;;;;4.07;1.03;;;13.10;99.90;;;;;;5058305;28;20448;-75
2023/11/02 14:18:45;;;;;;;2.90;1.20;;;13.10;99.90;;;;;;5053141;28;20438;-75
2023/11/02 14:21:30;;;;;;;2.63;0.90;;;13.10;99.90;;;;;;5060089;28;20454;-75
2023/11/02 14:24:17;;;;;;;4.27;1.30;;;13.10;99.90;;;;;;5066007;28;20522;-76
2023/11/02 14:27:03;;;;;;;8.23;1.40;;;13.00;99.90;;;;;;5045631;28;20564;-75
2023/11/02 14:29:51;;;;;;;2.17;1.03;;;13.00;99.90;;;;;;5054441;28;20453;-75
2023/11/02 14:32:36;;;;;;;3.70;0.90;;;13.00;99.90;;;;;;5057405;28;20425;-75
2023/11/02 14:35:24;;;;;;;3.10;1.43;;;13.00;99.90;;;;;;5054144;28;20504;-75
2023/11/02 14:38:10;;;;;;;4.90;2.40;;;13.00;99.90;;;;;;5046368;28;21036;-75